createdAt,value
2023-05-10T04:08:19.514Z,99.9
2023-05-10T04:11:07.376Z,99.9
2023-05-10T04:13:55.526Z,99.9
2023-05-10T04:16:43.534Z,99.9
2023-05-10T04:19:31.391Z,99.9
2023-05-10T04:22:19.073Z,99.9
2023-05-10T04:25:06.843Z,99.9
2023-05-10T04:27:54.585Z,99.9
2023-05-10T04:30:42.826Z,99.9
2023-05-10T04:33:30.687Z,99.9
2023-05-10T04:36:18.494Z,99.9
2023-05-10T04:39:06.277Z,99.9
2023-05-10T04:41:54.190Z,99.9
2023-05-10T04:44:41.904Z,99.9
2023-05-10T04:47:29.797Z,99.9
2023-05-10T04:50:18.142Z,99.9
2023-05-10T04:53:06.076Z,99.9
2023-05-10T04:55:53.859Z,99.9
2023-05-10T04:58:41.760Z,99.9
2023-05-10T05:01:29.674Z,99.9
2023-05-10T05:04:17.714Z,99.9
2023-05-10T05:07:05.548Z,99.9
2023-05-10T05:09:53.326Z,99.9
2023-05-10T05:12:41.110Z,99.9
2023-05-10T05:15:29.135Z,99.9
2023-05-10T05:18:16.937Z,99.9
2023-05-10T05:21:04.796Z,99.9
2023-05-10T05:23:52.552Z,99.9
2023-05-10T05:26:40.545Z,99.9
2023-05-10T05:29:28.290Z,99.9
2023-05-10T05:32:16.234Z,99.9
2023-05-10T05:35:03.973Z,99.9
2023-05-10T05:37:51.771Z,99.9
2023-05-10T05:40:39.522Z,99.9
2023-05-10T05:43:27.392Z,99.9
2023-05-10T05:46:15.346Z,99.9
2023-05-10T05:49:03.420Z,99.9
2023-05-10T05:51:51.124Z,99.9
2023-05-10T05:54:39.002Z,99.9
2023-05-10T05:57:29.538Z,99.9
2023-05-10T06:00:17.461Z,99.9
2023-05-10T06:03:05.483Z,99.9
2023-05-10T06:05:53.543Z,99.9
2023-05-10T06:08:41.360Z,99.9
2023-05-10T06:11:29.283Z,99.9
2023-05-10T06:14:17.068Z,99.9
2023-05-10T06:17:05.338Z,99.9
2023-05-10T06:19:53.138Z,99.9
2023-05-10T06:22:41.157Z,99.9
2023-05-10T06:25:28.903Z,99.9
2023-05-10T06:28:21.308Z,99.9
2023-05-10T06:31:09.205Z,99.9
2023-05-10T06:33:57.169Z,99.9
2023-05-10T06:36:44.900Z,99.9
2023-05-10T06:39:32.912Z,99.9
2023-05-10T06:42:20.672Z,99.9
2023-05-10T06:45:08.564Z,99.9
2023-05-10T06:47:56.555Z,99.9
2023-05-10T06:50:44.383Z,99.9
2023-05-10T06:53:32.270Z,99.9
2023-05-10T06:56:20.280Z,99.9
2023-05-10T06:59:08.266Z,99.9
2023-05-10T07:01:56.420Z,99.9
2023-05-10T07:04:44.403Z,99.9
2023-05-10T07:07:32.223Z,99.9
2023-05-10T07:10:19.992Z,99.9
2023-05-10T07:13:08.476Z,99.9
2023-05-10T07:15:56.493Z,99.9
2023-05-10T07:18:44.386Z,99.9
2023-05-10T07:21:32.328Z,99.9
2023-05-10T07:24:20.393Z,99.9
2023-05-10T07:27:08.145Z,99.9
2023-05-10T07:29:56.112Z,99.9
2023-05-10T07:32:44.109Z,99.9
2023-05-10T07:35:32.087Z,99.9
2023-05-10T07:38:19.738Z,99.9
2023-05-10T07:41:07.504Z,99.9
2023-05-10T07:43:55.439Z,99.9
2023-05-10T07:46:43.757Z,99.9
2023-05-10T07:49:31.642Z,99.9
2023-05-10T07:52:22.928Z,99.9
2023-05-10T07:55:10.764Z,99.9
2023-05-10T07:57:58.653Z,99.9
2023-05-10T08:00:46.408Z,99.9
2023-05-10T08:03:34.700Z,99.9
2023-05-10T08:06:22.511Z,99.9
2023-05-10T08:09:10.434Z,99.9
2023-05-10T08:11:58.181Z,99.9
2023-05-10T08:14:45.963Z,99.9
2023-05-10T08:17:33.821Z,99.9
2023-05-10T08:20:22.026Z,99.9
2023-05-10T08:23:09.980Z,99.9
2023-05-10T08:25:57.811Z,99.9
2023-05-10T08:28:45.597Z,99.9
2023-05-10T08:31:33.620Z,99.9
2023-05-10T08:34:21.616Z,99.9
2023-05-10T08:37:09.647Z,99.9
2023-05-10T08:39:59.416Z,99.9
2023-05-10T08:42:47.326Z,99.9
2023-05-10T08:45:35.101Z,99.9
2023-05-10T08:48:22.950Z,99.9
2023-05-10T08:51:10.678Z,99.9
2023-05-10T08:53:58.693Z,99.9
2023-05-10T08:56:49.871Z,99.9
2023-05-10T08:59:37.924Z,99.9
2023-05-10T09:02:25.772Z,99.9
2023-05-10T09:05:14.087Z,99.9
2023-05-10T09:08:04.366Z,99.9
2023-05-10T09:10:52.530Z,99.9
2023-05-10T09:13:40.347Z,99.9
2023-05-10T09:16:38.536Z,99.9
2023-05-10T09:19:26.405Z,99.9
2023-05-10T09:22:14.221Z,99.9
2023-05-10T09:25:02.001Z,99.9
2023-05-10T09:27:50.029Z,99.9
2023-05-10T09:30:38.038Z,99.9
2023-05-10T09:33:26.129Z,99.9
2023-05-10T09:36:13.849Z,99.9
2023-05-10T09:39:01.686Z,99.9
2023-05-10T09:41:49.364Z,99.9
2023-05-10T09:44:37.405Z,99.9
2023-05-10T09:47:25.307Z,99.9
2023-05-10T09:50:13.082Z,99.9
2023-05-10T09:53:00.911Z,99.9
2023-05-10T09:55:48.694Z,99.9
2023-05-10T09:58:36.579Z,99.9
2023-05-10T10:01:24.897Z,99.9
2023-05-10T10:04:12.793Z,99.9
2023-05-10T10:07:00.745Z,99.9
2023-05-10T10:09:48.532Z,99.9
2023-05-10T10:12:36.372Z,99.9
2023-05-10T10:15:24.013Z,99.9
2023-05-10T10:18:11.952Z,99.9
2023-05-10T10:20:59.687Z,99.9
2023-05-10T10:23:47.506Z,99.9
2023-05-10T10:26:35.344Z,99.9
2023-05-10T10:29:23.272Z,99.9
2023-05-10T10:32:11.170Z,99.9
2023-05-10T10:34:59.363Z,99.9
2023-05-10T10:37:47.220Z,99.9
2023-05-10T10:40:35.480Z,99.9
2023-05-10T10:43:23.212Z,99.9
2023-05-10T10:46:10.958Z,99.9
2023-05-10T10:48:58.785Z,99.9
2023-05-10T10:51:46.809Z,99.9
2023-05-10T10:54:34.530Z,99.9
2023-05-10T10:57:22.383Z,99.9
2023-05-10T11:00:10.170Z,99.9
2023-05-10T11:02:59.827Z,99.9
2023-05-10T11:05:47.852Z,99.9
2023-05-10T11:08:38.499Z,99.9
2023-05-10T11:11:26.368Z,99.9
2023-05-10T11:14:16.811Z,99.9
2023-05-10T11:17:04.673Z,99.9
2023-05-10T11:19:52.587Z,99.9
2023-05-10T11:22:40.364Z,99.9
2023-05-10T11:25:28.281Z,99.9
2023-05-10T11:28:15.932Z,99.9
2023-05-10T11:31:03.993Z,99.9
2023-05-10T11:33:51.812Z,99.9
2023-05-10T11:36:39.805Z,99.9
2023-05-10T11:39:27.631Z,99.9
2023-05-10T11:42:15.591Z,99.9
2023-05-10T11:45:03.308Z,99.9
2023-05-10T11:47:51.445Z,99.9
2023-05-10T11:50:39.284Z,99.9
2023-05-10T11:53:27.169Z,99.9
2023-05-10T11:56:14.817Z,99.9
2023-05-10T11:59:02.859Z,99.9
2023-05-10T12:01:50.571Z,99.9
2023-05-10T12:04:38.687Z,99.9
2023-05-10T12:07:26.564Z,99.9
2023-05-10T12:10:14.795Z,99.9
2023-05-10T12:13:02.597Z,99.9
2023-05-10T12:15:50.427Z,99.9
2023-05-10T12:18:38.407Z,99.9
2023-05-10T12:21:26.327Z,99.9
2023-05-10T12:24:13.955Z,99.9
2023-05-10T12:27:01.860Z,99.9
2023-05-10T12:29:49.658Z,99.9
2023-05-10T12:32:37.765Z,99.9
2023-05-10T12:35:25.654Z,99.9
2023-05-10T12:38:13.567Z,99.9
2023-05-10T12:41:01.595Z,99.9
2023-05-10T12:43:49.623Z,99.9
2023-05-10T12:46:37.653Z,99.9
2023-05-10T12:49:36.626Z,99.9
2023-05-10T12:52:24.386Z,99.9
2023-05-10T12:55:12.219Z,99.9
2023-05-10T12:57:59.880Z,99.9
2023-05-10T13:00:47.827Z,99.9
2023-05-10T13:03:35.672Z,99.9
2023-05-10T13:06:23.606Z,99.9
2023-05-10T13:09:11.458Z,99.9
2023-05-10T13:11:59.283Z,99.9
2023-05-10T13:14:46.953Z,99.9
2023-05-10T13:17:34.966Z,99.9
2023-05-10T13:20:22.675Z,99.5
2023-05-10T13:23:10.534Z,99.9
2023-05-10T13:25:58.190Z,99.9
2023-05-10T13:28:45.825Z,99.9
2023-05-10T13:31:33.727Z,99.9
2023-05-10T13:34:21.720Z,99.9
2023-05-10T13:37:09.629Z,99.9
2023-05-10T13:39:57.597Z,99.9
2023-05-10T13:42:45.174Z,99.9
2023-05-10T13:45:32.951Z,99.9
2023-05-10T13:48:20.714Z,99.9
2023-05-10T13:51:08.666Z,99.9
2023-05-10T13:53:56.437Z,99.9
2023-05-10T13:56:44.342Z,99.9
2023-05-10T13:59:32.060Z,99.9
2023-05-10T14:02:19.987Z,99.9
2023-05-10T14:05:07.674Z,99.9
2023-05-10T14:07:55.432Z,99.9
2023-05-10T14:10:43.238Z,99.9
2023-05-10T14:13:31.217Z,99.9
2023-05-10T14:16:19.216Z,99.9
2023-05-10T14:19:07.287Z,99.9
2023-05-10T14:21:55.245Z,99.9
2023-05-10T14:24:43.174Z,99.8
2023-05-10T14:27:30.821Z,99.4
2023-05-10T14:30:18.670Z,99.1
2023-05-10T14:33:06.539Z,99.6
2023-05-10T14:35:54.680Z,98.8
2023-05-10T14:38:42.299Z,99.3
2023-05-10T14:41:30.108Z,99.9
2023-05-10T14:44:17.816Z,99.9
2023-05-10T14:47:06.022Z,99.9
2023-05-10T14:49:53.692Z,99.2
2023-05-10T14:52:41.624Z,99.9
2023-05-10T14:55:29.429Z,99.9
2023-05-10T14:58:17.341Z,99.9
2023-05-10T15:01:06.443Z,99.8
2023-05-10T15:03:56.431Z,97
2023-05-10T15:06:44.635Z,96.9
2023-05-10T15:09:32.468Z,97.1
2023-05-10T15:12:20.455Z,93.1
2023-05-10T15:15:08.341Z,95.7
2023-05-10T15:17:56.180Z,95.3
2023-05-10T15:20:44.028Z,95.5
2023-05-10T15:23:31.893Z,94.8
2023-05-10T15:26:19.726Z,95
2023-05-10T15:29:07.414Z,96.6
2023-05-10T15:31:55.630Z,97.7
2023-05-10T15:34:43.489Z,99
2023-05-10T15:37:31.415Z,99.9
2023-05-10T15:40:19.167Z,99.9
2023-05-10T15:43:07.252Z,99.9
2023-05-10T15:45:55.065Z,99.9
2023-05-10T15:48:42.968Z,99.9
2023-05-10T15:51:30.635Z,99.9
2023-05-10T15:54:34.331Z,99.9
2023-05-10T15:57:22.095Z,99.9
2023-05-10T16:00:10.079Z,99.9
2023-05-10T16:02:58.280Z,99.9
2023-05-10T16:05:46.658Z,99.9
2023-05-10T16:08:34.558Z,99.9
2023-05-10T16:11:22.464Z,99.9
2023-05-10T16:14:10.295Z,99.9
2023-05-10T16:16:58.685Z,99.9
2023-05-10T16:19:46.427Z,99.9
2023-05-10T16:22:34.357Z,99.9
2023-05-10T16:25:22.106Z,99.9
2023-05-10T16:28:10.123Z,99.9
2023-05-10T16:30:57.902Z,99.9
2023-05-10T16:33:45.681Z,99.9
2023-05-10T16:36:34.281Z,99.9
2023-05-10T16:39:22.165Z,99.9
2023-05-10T16:42:09.879Z,99.9
2023-05-10T16:44:57.640Z,99.9
2023-05-10T16:47:45.470Z,99.9
2023-05-10T16:50:33.302Z,99.9
2023-05-10T16:53:21.085Z,99.9
2023-05-10T16:56:08.923Z,99.9
2023-05-10T16:58:56.517Z,99.9
2023-05-10T17:01:44.626Z,99.9
2023-05-10T17:04:32.529Z,99.9
2023-05-10T17:07:20.237Z,99.9
2023-05-10T17:10:07.946Z,99.9
2023-05-10T17:12:55.880Z,99.9
2023-05-10T17:15:44.240Z,99.9
2023-05-10T17:18:32.294Z,99.9
2023-05-10T17:21:19.975Z,99.9
2023-05-10T17:24:07.775Z,99.9
2023-05-10T17:26:55.429Z,99.9
2023-05-10T17:29:43.240Z,99.9
2023-05-10T17:32:31.106Z,99.9
2023-05-10T17:35:19.412Z,99.9
2023-05-10T17:38:07.103Z,99.9
2023-05-10T17:40:55.150Z,99.9
2023-05-10T17:43:42.929Z,99.9
2023-05-10T17:46:30.871Z,99.9
2023-05-10T17:49:18.509Z,99.9
2023-05-10T17:52:06.396Z,99.9
2023-05-10T17:54:54.160Z,99.9
2023-05-10T17:57:42.110Z,99.9
2023-05-10T18:00:29.884Z,99.9
2023-05-10T18:03:17.871Z,99.9
2023-05-10T18:06:06.166Z,99.9
2023-05-10T18:08:54.219Z,99.9
2023-05-10T18:11:42.037Z,99.9
2023-05-10T18:14:41.555Z,99.9
2023-05-10T18:17:29.630Z,99.9
2023-05-10T18:20:17.565Z,99.9
2023-05-10T18:23:05.708Z,99.9
2023-05-10T18:25:53.873Z,99.9
2023-05-10T18:28:41.888Z,99.9
2023-05-10T18:31:30.084Z,99.9
2023-05-10T18:34:17.899Z,99.9
2023-05-10T18:37:05.789Z,99.9
2023-05-10T18:39:53.704Z,99.9
2023-05-10T18:42:41.808Z,99.9
2023-05-10T18:45:29.771Z,99.9
2023-05-10T18:48:17.909Z,99.9
2023-05-10T18:51:05.647Z,99.9
2023-05-10T18:53:53.530Z,99.9
2023-05-10T18:56:41.247Z,99.9
2023-05-10T18:59:29.249Z,99.9
2023-05-10T19:02:19.778Z,99.9
2023-05-10T19:05:08.089Z,99.9
2023-05-10T19:07:55.980Z,99.9
2023-05-10T19:10:44.006Z,99.9
2023-05-10T19:13:32.011Z,99.9
2023-05-10T19:16:24.079Z,99.9
2023-05-10T19:19:13.169Z,99.9
2023-05-10T19:22:03.972Z,99.9
2023-05-10T19:24:51.738Z,99.9
2023-05-10T19:27:39.728Z,99.9
2023-05-10T19:30:28.779Z,99.9
2023-05-10T19:33:17.143Z,99.9
2023-05-10T19:36:05.881Z,99.9
2023-05-10T19:38:54.034Z,99.9
2023-05-10T19:41:41.788Z,99.9
2023-05-10T19:44:29.711Z,99.9
2023-05-10T19:47:17.698Z,99.9
2023-05-10T19:50:05.771Z,99.9
2023-05-10T19:52:53.653Z,99.9
2023-05-10T19:55:41.768Z,99.9
2023-05-10T19:58:29.746Z,99.9
2023-05-10T20:01:17.963Z,99.9
2023-05-10T20:04:05.957Z,99.9
2023-05-10T20:06:54.014Z,99.9
2023-05-10T20:09:41.765Z,99.9
2023-05-10T20:12:29.536Z,99.9
2023-05-10T20:15:18.023Z,99.9
2023-05-10T20:18:06.222Z,99.9
2023-05-10T20:20:54.194Z,99.9
2023-05-10T20:23:42.283Z,99.9
2023-05-10T20:26:30.093Z,99.9
2023-05-10T20:29:17.891Z,99.9
2023-05-10T20:32:05.755Z,99.9
2023-05-10T20:34:53.689Z,99.9
2023-05-10T20:37:41.538Z,99.9
2023-05-10T20:40:29.650Z,99.9
2023-05-10T20:43:17.498Z,99.9
2023-05-10T20:46:06.282Z,99.9
2023-05-10T20:48:54.270Z,99.9
2023-05-10T20:51:42.237Z,99.9
2023-05-10T20:54:30.119Z,99.9
2023-05-10T20:57:18.083Z,99.9
2023-05-10T21:00:05.965Z,99.9
2023-05-10T21:02:54.261Z,99.9
2023-05-10T21:05:42.243Z,99.9
2023-05-10T21:08:30.158Z,99.9
2023-05-10T21:11:18.043Z,99.9
2023-05-10T21:14:06.140Z,99.9
2023-05-10T21:16:54.198Z,99.9
2023-05-10T21:19:42.164Z,99.9
2023-05-10T21:22:29.949Z,99.9
2023-05-10T21:25:17.874Z,99.9
2023-05-10T21:28:05.822Z,99.9
2023-05-10T21:30:53.925Z,99.9
2023-05-10T21:33:41.806Z,99.9
2023-05-10T21:36:29.807Z,99.9
2023-05-10T21:39:17.617Z,99.9
2023-05-10T21:42:05.561Z,99.9
2023-05-10T21:44:53.287Z,99.9
2023-05-10T21:47:41.358Z,99.9
2023-05-10T21:50:29.277Z,99.9
2023-05-10T21:53:17.154Z,99.9
2023-05-10T21:56:05.033Z,99.9
2023-05-10T21:58:52.927Z,99.9
2023-05-10T22:01:41.138Z,99.9
2023-05-10T22:04:29.078Z,99.9
2023-05-10T22:07:16.839Z,99.9
2023-05-10T22:10:04.665Z,99.9
2023-05-10T22:12:52.555Z,99.9
2023-05-10T22:15:40.397Z,99.9
2023-05-10T22:18:28.392Z,99.9
2023-05-10T22:21:16.285Z,99.9
2023-05-10T22:24:04.114Z,99.9
2023-05-10T22:26:51.918Z,99.9
2023-05-10T22:29:39.719Z,99.9
2023-05-10T22:32:27.569Z,99.9
2023-05-10T22:35:15.328Z,99.9
2023-05-10T22:38:03.304Z,99.9
2023-05-10T22:40:51.107Z,99.9
2023-05-10T22:43:38.989Z,99.9
2023-05-10T22:46:26.902Z,99.9
2023-05-10T22:49:14.882Z,99.9
2023-05-10T22:52:02.623Z,99.9
2023-05-10T22:54:50.571Z,99.9
2023-05-10T22:57:38.812Z,99.9
2023-05-10T23:00:27.476Z,99.9
2023-05-10T23:03:15.278Z,99.9
2023-05-10T23:06:03.099Z,99.9
2023-05-10T23:08:50.878Z,99.9
2023-05-10T23:11:38.789Z,99.9
2023-05-10T23:14:26.509Z,99.9
2023-05-10T23:17:14.432Z,99.9
2023-05-10T23:20:02.199Z,99.9
2023-05-10T23:22:50.100Z,99.9
2023-05-10T23:25:37.835Z,99.9
2023-05-10T23:28:25.800Z,99.9
2023-05-10T23:31:13.605Z,99.9
2023-05-10T23:34:01.488Z,99.9
2023-05-10T23:36:49.327Z,99.9
2023-05-10T23:39:37.129Z,99.9
2023-05-10T23:42:25.050Z,99.9
2023-05-10T23:45:13.060Z,99.9
2023-05-10T23:48:01.074Z,99.9
2023-05-10T23:50:49.016Z,99.9
2023-05-10T23:53:36.875Z,99.9
2023-05-10T23:56:24.822Z,99.9
2023-05-10T23:59:12.571Z,99.9
